Terminal Aerodrome Forecast
Issued by NWS

Home | Current Version | Previous Version | Text Only | Print | Product List | Glossary On
Versions: 1 2 3 4 5 6 7 8 9 10 11 12 13 14 15 16 17 18 19 20 21 22 23 24 25 26 27 28
152
FTUS45 KREV 250538
TAFTVL
TAF
KTVL 250538Z 2506/2606 20003KT P6SM SCT120 BKN200
     FM251800 19012G22KT P6SM SCT120 OVC180
     FM260200 20015G25KT P6SM SCT090 OVC180=

USA.gov is the U.S. government's official web portal to all federal, state and local government web resources and services.